Terminal Aerodrome Forecast
Issued by NWS

Home | Current Version | Previous Version | Text Only | Print | Product List | Glossary On
Versions: 1 2 3 4 5 6 7 8 9 10 11 12 13 14 15 16 17 18 19 20 21 22 23
000
FTUS41 KBGM 261911 AAA
TAFITH
TAF AMD
KITH 261911Z 2619/2718 32010KT P6SM OVC019
      TEMPO 2619/2622 4SM -SHRA BR BKN008
     FM262200 32008KT P6SM BKN012
      TEMPO 2622/2702 OVC008
     FM270200 33003KT 5SM BR OVC008
      TEMPO 2707/2711 2SM BR OVC003
     FM271500 32005KT P6SM BKN012=

USA.gov is the U.S. government's official web portal to all federal, state and local government web resources and services.